Time;durP1;ratioP1;P1;durP2;ratioP2;P2;SDS_P1;SDS_P2;PMS_P1;PMS_P2;Temp;Humidity;BMP_temperature;BMP_pressure;BME280_temperature;BME280_humidity;BME280_pressure;Samples;Min_cycle;Max_cycle;Signal;HPM_P1;HPM_P2
2023/10/06 00:01:40;;;;;;;3.23;1.73;;;14.50;99.90;;;;;;5014477;28;20595;-76
2023/10/06 00:04:07;;;;;;;4.13;2.33;;;14.50;99.90;;;;;;5014236;28;20603;-75
2023/10/06 00:06:37;;;;;;;5.00;2.00;;;14.50;99.90;;;;;;4997535;28;20620;-75
2023/10/06 00:09:06;;;;;;;5.23;2.37;;;14.40;99.90;;;;;;5015277;28;20691;-76
2023/10/06 00:11:32;;;;;;;2.90;1.80;;;14.40;99.90;;;;;;5014158;28;21274;-75
2023/10/06 00:14:01;;;;;;;5.00;1.80;;;14.40;99.90;;;;;;5014108;28;20569;-75
2023/10/06 00:16:33;;;;;;;3.60;2.03;;;14.40;99.90;;;;;;5013605;28;20284;-76
2023/10/06 00:19:14;;;;;;;4.03;1.83;;;14.40;99.90;;;;;;5031642;28;20614;-75
2023/10/06 00:21:47;;;;;;;3.40;1.57;;;14.40;99.90;;;;;;5031718;28;20867;-76
2023/10/06 00:24:12;;;;;;;3.40;1.80;;;14.30;99.90;;;;;;5031641;28;20912;-75
2023/10/06 00:26:38;;;;;;;4.20;1.57;;;14.30;99.90;;;;;;5013602;28;20616;-75
2023/10/06 00:29:10;;;;;;;4.20;1.70;;;14.30;99.90;;;;;;5013681;28;20188;-75
2023/10/06 00:31:35;;;;;;;3.53;1.80;;;14.30;99.90;;;;;;5013621;28;20174;-76
2023/10/06 00:34:01;;;;;;;6.13;1.80;;;14.30;99.90;;;;;;5013731;28;20607;-75
2023/10/06 00:36:29;;;;;;;5.40;2.13;;;14.40;99.90;;;;;;5031084;28;20616;-76
2023/10/06 00:38:55;;;;;;;4.80;1.90;;;14.40;99.90;;;;;;5029783;28;20178;-76
2023/10/06 00:41:21;;;;;;;2.70;1.50;;;14.40;99.90;;;;;;5013455;28;20177;-76
2023/10/06 00:43:48;;;;;;;4.80;2.03;;;14.40;99.90;;;;;;5013443;28;20596;-76
2023/10/06 00:46:16;;;;;;;4.30;2.30;;;14.30;99.90;;;;;;5014490;28;20619;-76
2023/10/06 00:48:44;;;;;;;6.13;2.07;;;14.30;99.90;;;;;;5013333;28;20600;-76
2023/10/06 00:51:22;;;;;;;4.43;2.00;;;14.30;99.90;;;;;;5013298;28;20623;-76
2023/10/06 00:53:51;;;;;;;3.87;1.57;;;14.20;99.90;;;;;;5013338;28;20646;-76
2023/10/06 00:56:23;;;;;;;8.53;2.07;;;14.20;99.90;;;;;;5012972;28;20652;-76
2023/10/06 00:58:49;;;;;;;5.57;2.37;;;14.30;99.90;;;;;;5013290;28;20682;-76
2023/10/06 01:01:17;;;;;;;4.53;2.03;;;14.20;99.90;;;;;;5013288;28;21141;-75
2023/10/06 01:06:36;;;;;;;3.97;2.53;;;14.30;99.90;;;;;;5012370;28;21094;-74
2023/10/06 01:11:47;;;;;;;8.53;2.50;;;14.20;99.90;;;;;;5013026;28;20690;-74
2023/10/06 01:14:26;;;;;;;8.63;2.33;;;14.20;99.90;;;;;;5012927;28;20630;-74
2023/10/06 01:16:56;;;;;;;4.37;2.30;;;14.20;99.90;;;;;;5012467;28;20611;-75
2023/10/06 01:19:27;;;;;;;3.83;2.13;;;14.20;99.90;;;;;;5013305;28;20595;-75
2023/10/06 01:21:55;;;;;;;4.10;1.73;;;14.20;99.90;;;;;;5030758;28;20275;-75
2023/10/06 01:24:25;;;;;;;3.83;2.17;;;14.20;99.90;;;;;;5013362;28;20588;-75
2023/10/06 01:27:00;;;;;;;8.03;1.77;;;14.20;99.90;;;;;;5012792;28;20656;-75
2023/10/06 01:29:30;;;;;;;3.80;1.90;;;14.20;99.90;;;;;;4996868;28;20631;-75
2023/10/06 01:31:57;;;;;;;3.47;2.27;;;14.20;99.90;;;;;;5012867;28;21556;-75
2023/10/06 01:34:24;;;;;;;7.13;2.70;;;14.20;99.90;;;;;;5013349;28;20584;-75
2023/10/06 01:36:53;;;;;;;5.17;1.70;;;14.10;99.90;;;;;;5029918;28;20611;-74
2023/10/06 01:39:22;;;;;;;5.10;2.80;;;14.10;99.90;;;;;;5013586;28;20576;-75
2023/10/06 01:41:49;;;;;;;5.80;2.60;;;14.10;99.90;;;;;;4996519;28;21298;-75
2023/10/06 01:44:15;;;;;;;3.60;2.47;;;14.10;99.90;;;;;;5034086;28;20569;-75
2023/10/06 01:46:43;;;;;;;6.50;2.50;;;14.10;99.90;;;;;;5033261;28;20612;-75
2023/10/06 01:49:14;;;;;;;4.40;2.00;;;14.10;99.90;;;;;;5033157;28;21165;-75
2023/10/06 01:51:40;;;;;;;3.35;2.05;;;14.10;99.90;;;;;;5000435;28;20584;-74
2023/10/06 01:54:07;;;;;;;6.33;2.70;;;14.10;99.90;;;;;;5033140;28;20706;-75
2023/10/06 01:56:37;;;;;;;6.40;1.87;;;14.10;99.90;;;;;;4999692;28;20620;-75
2023/10/06 01:59:05;;;;;;;5.30;2.30;;;14.10;99.90;;;;;;5016592;28;20619;-75
2023/10/06 02:01:31;;;;;;;4.93;2.60;;;14.10;99.90;;;;;;5016863;28;20615;-75
2023/10/06 02:03:57;;;;;;;7.73;1.90;;;14.10;99.90;;;;;;5023660;28;20599;-75
2023/10/06 02:06:25;;;;;;;4.73;2.23;;;14.00;99.90;;;;;;5012706;28;21274;-74
2023/10/06 02:08:52;;;;;;;5.00;1.83;;;14.00;99.90;;;;;;4996385;28;20183;-74
2023/10/06 02:11:21;;;;;;;4.83;1.70;;;14.00;99.90;;;;;;4996482;28;21146;-74
2023/10/06 02:13:47;;;;;;;6.27;2.17;;;14.00;99.90;;;;;;5012868;28;20637;-74
2023/10/06 02:16:13;;;;;;;5.70;2.00;;;14.00;99.90;;;;;;4963822;28;20667;-74
2023/10/06 02:18:40;;;;;;;4.80;2.20;;;14.00;99.90;;;;;;5027599;28;20591;-74
2023/10/06 02:21:23;;;;;;;3.50;1.97;;;14.00;99.90;;;;;;5032476;28;20181;-74
2023/10/06 02:23:51;;;;;;;4.00;1.83;;;14.00;99.90;;;;;;5033888;28;21003;-74
2023/10/06 02:26:17;;;;;;;6.67;2.23;;;14.00;99.90;;;;;;5015727;28;20654;-74
2023/10/06 02:28:48;;;;;;;4.87;2.03;;;14.00;99.90;;;;;;5016067;28;20584;-75
2023/10/06 02:31:21;;;;;;;2.87;1.63;;;14.00;99.90;;;;;;5032357;28;21047;-74
2023/10/06 02:33:51;;;;;;;3.00;1.70;;;14.00;99.90;;;;;;5032532;28;20743;-74
2023/10/06 02:36:23;;;;;;;4.82;1.80;;;14.00;99.90;;;;;;5031857;28;20193;-74
2023/10/06 02:38:51;;;;;;;3.27;1.83;;;14.00;99.90;;;;;;5032479;28;20697;-74
2023/10/06 02:41:23;;;;;;;5.03;2.40;;;14.00;99.90;;;;;;5032148;28;20576;-74
2023/10/06 02:43:51;;;;;;;5.63;1.97;;;14.00;99.90;;;;;;5033500;28;21121;-75
2023/10/06 02:46:21;;;;;;;4.30;1.83;;;13.90;99.90;;;;;;4998974;28;20616;-75
2023/10/06 02:48:51;;;;;;;4.68;2.35;;;13.90;99.90;;;;;;5015668;28;20584;-74
2023/10/06 02:51:32;;;;;;;7.77;2.70;;;13.90;99.90;;;;;;5015685;28;20196;-74
2023/10/06 02:56:46;;;;;;;6.40;2.00;;;13.90;99.90;;;;;;5015214;28;20770;-74
2023/10/06 02:59:25;;;;;;;4.43;1.90;;;13.80;99.90;;;;;;5033197;28;20576;-75
2023/10/06 03:01:57;;;;;;;4.57;1.92;;;13.80;99.90;;;;;;5015507;28;20994;-75
2023/10/06 03:04:27;;;;;;;3.90;2.37;;;13.80;99.90;;;;;;5031879;28;20220;-75
2023/10/06 03:06:56;;;;;;;5.65;2.10;;;13.70;99.90;;;;;;5015163;28;20616;-75
2023/10/06 03:09:43;;;;;;;5.77;2.30;;;13.70;99.90;;;;;;5033112;28;20232;-74
2023/10/06 03:12:31;;;;;;;6.43;2.50;;;13.70;99.90;;;;;;5015509;28;20670;-75
2023/10/06 03:14:57;;;;;;;5.90;2.30;;;13.60;99.90;;;;;;5034415;28;20170;-75
2023/10/06 03:17:23;;;;;;;4.93;2.23;;;13.60;99.90;;;;;;5014967;28;20188;-74
2023/10/06 03:20:01;;;;;;;3.43;2.40;;;13.60;99.90;;;;;;5015379;28;21148;-74
2023/10/06 03:22:28;;;;;;;5.20;2.90;;;13.60;99.90;;;;;;5015122;28;20720;-75
2023/10/06 03:24:58;;;;;;;5.25;2.00;;;13.60;99.90;;;;;;4998908;28;20589;-75
2023/10/06 03:27:25;;;;;;;3.93;2.17;;;13.60;99.90;;;;;;5007667;28;20212;-74
2023/10/06 03:29:55;;;;;;;3.87;2.00;;;13.60;99.90;;;;;;5033479;28;20687;-74
2023/10/06 03:32:32;;;;;;;7.23;2.30;;;13.60;99.90;;;;;;5015606;28;21198;-74
2023/10/06 03:37:52;;;;;;;4.40;2.30;;;13.50;99.90;;;;;;5043372;28;20196;-74
2023/10/06 03:40:42;;;;;;;4.07;2.20;;;13.50;99.90;;;;;;5019254;28;20612;-75
2023/10/06 03:43:12;;;;;;;4.40;2.30;;;13.50;99.90;;;;;;5032879;28;20973;-74
2023/10/06 03:45:40;;;;;;;3.25;2.17;;;13.50;99.90;;;;;;5015450;28;20283;-74
2023/10/06 03:48:11;;;;;;;4.57;2.35;;;13.50;99.90;;;;;;5019370;28;20254;-75
2023/10/06 03:50:42;;;;;;;5.67;2.40;;;13.50;99.90;;;;;;5026275;28;20766;-74
2023/10/06 03:53:11;;;;;;;3.95;1.98;;;13.40;99.90;;;;;;5030495;28;20636;-74
2023/10/06 03:55:40;;;;;;;3.50;2.23;;;13.40;99.90;;;;;;5043483;28;20209;-74
2023/10/06 03:58:07;;;;;;;4.30;2.30;;;13.40;99.90;;;;;;5050168;28;20580;-74
2023/10/06 04:00:41;;;;;;;4.75;2.50;;;13.40;99.90;;;;;;5016514;28;20600;-74
2023/10/06 04:03:10;;;;;;;7.30;2.58;;;13.40;99.90;;;;;;5044897;28;20200;-75
2023/10/06 04:05:37;;;;;;;5.57;2.13;;;13.40;99.90;;;;;;5030867;28;20227;-75
2023/10/06 04:08:12;;;;;;;5.60;2.30;;;13.40;99.90;;;;;;5047738;28;20177;-74
2023/10/06 04:10:42;;;;;;;4.07;2.22;;;13.30;99.90;;;;;;5045917;28;20979;-74
2023/10/06 04:13:09;;;;;;;4.90;2.15;;;13.30;99.90;;;;;;5046089;28;20236;-74
2023/10/06 04:15:43;;;;;;;3.60;2.25;;;13.30;99.90;;;;;;5031057;28;20193;-74
2023/10/06 04:18:10;;;;;;;5.60;2.63;;;13.30;99.90;;;;;;5031663;28;20186;-74
2023/10/06 04:20:43;;;;;;;6.03;2.38;;;13.30;99.90;;;;;;5014072;28;20592;-74
2023/10/06 04:23:13;;;;;;;3.63;2.35;;;13.20;99.90;;;;;;5031731;28;20177;-74
2023/10/06 04:25:40;;;;;;;6.50;2.20;;;13.20;99.90;;;;;;5031679;28;20224;-74
2023/10/06 04:28:13;;;;;;;3.45;1.73;;;13.20;99.90;;;;;;5014958;28;20186;-74
2023/10/06 04:30:41;;;;;;;4.95;2.30;;;13.20;99.90;;;;;;5030465;28;20196;-74
2023/10/06 04:33:10;;;;;;;4.43;2.43;;;13.20;99.90;;;;;;5030210;28;20291;-74
2023/10/06 04:35:47;;;;;;;5.60;2.60;;;13.20;99.90;;;;;;5031402;28;20982;-74
2023/10/06 04:38:14;;;;;;;7.00;2.57;;;13.20;99.90;;;;;;5013444;28;20611;-74
2023/10/06 04:40:43;;;;;;;4.40;2.20;;;13.20;99.90;;;;;;5013647;28;20588;-74
2023/10/06 04:43:13;;;;;;;5.13;2.25;;;13.20;99.90;;;;;;5030135;28;20181;-74
2023/10/06 04:45:38;;;;;;;4.40;2.27;;;13.20;99.90;;;;;;5031216;28;20213;-74
2023/10/06 04:48:07;;;;;;;8.07;2.77;;;13.20;99.90;;;;;;5013194;28;20600;-74
2023/10/06 04:50:34;;;;;;;4.00;2.47;;;13.20;99.90;;;;;;5029974;28;20376;-74
2023/10/06 04:53:00;;;;;;;4.88;1.98;;;13.20;99.90;;;;;;5030798;28;20300;-75
2023/10/06 04:55:27;;;;;;;5.67;2.80;;;13.20;99.90;;;;;;5013150;28;20632;-75
2023/10/06 04:57:55;;;;;;;5.00;2.05;;;13.20;99.90;;;;;;5030921;28;20679;-75
2023/10/06 05:00:21;;;;;;;5.28;2.50;;;13.20;99.90;;;;;;5030818;28;20223;-75
2023/10/06 05:02:47;;;;;;;4.85;2.25;;;13.20;99.90;;;;;;5013004;28;20269;-75
2023/10/06 05:05:19;;;;;;;5.47;3.17;;;13.20;99.90;;;;;;5032755;28;20192;-75
2023/10/06 05:07:49;;;;;;;4.65;2.60;;;13.20;99.90;;;;;;5030663;28;20185;-75
2023/10/06 05:10:21;;;;;;;6.67;2.80;;;13.10;99.90;;;;;;5030898;28;20249;-75
2023/10/06 05:12:50;;;;;;;4.28;2.17;;;13.10;99.90;;;;;;4996580;28;20668;-75
2023/10/06 05:15:30;;;;;;;4.03;2.25;;;13.20;99.90;;;;;;5012807;28;20256;-75
2023/10/06 05:17:56;;;;;;;7.65;3.28;;;13.20;99.90;;;;;;5012129;28;20181;-75
2023/10/06 05:20:29;;;;;;;5.65;2.20;;;13.10;99.90;;;;;;5030527;28;20177;-75
2023/10/06 05:22:58;;;;;;;6.05;2.50;;;13.10;99.90;;;;;;5030445;28;20181;-76
2023/10/06 05:25:26;;;;;;;4.57;2.30;;;13.20;99.90;;;;;;5012870;28;20178;-75
2023/10/06 05:27:53;;;;;;;4.10;2.10;;;13.10;99.90;;;;;;4996487;28;20170;-76
2023/10/06 05:30:21;;;;;;;4.68;2.30;;;13.10;99.90;;;;;;5012845;28;20186;-76
2023/10/06 05:32:47;;;;;;;6.75;3.00;;;13.20;99.90;;;;;;5030431;28;20228;-75
2023/10/06 05:35:13;;;;;;;5.47;2.80;;;13.10;99.90;;;;;;5012964;28;20185;-75
2023/10/06 05:37:41;;;;;;;9.25;2.60;;;13.20;99.90;;;;;;5030464;28;20572;-76
2023/10/06 05:40:12;;;;;;;5.88;2.70;;;13.20;99.90;;;;;;4994166;28;20571;-75
2023/10/06 05:42:40;;;;;;;5.22;2.25;;;13.20;99.90;;;;;;5031806;28;20174;-75
2023/10/06 05:45:15;;;;;;;7.47;2.33;;;13.20;99.90;;;;;;5012933;28;20598;-75
2023/10/06 05:47:44;;;;;;;7.82;3.10;;;13.20;99.90;;;;;;5030190;28;20182;-76
2023/10/06 05:50:12;;;;;;;5.57;2.05;;;13.20;99.90;;;;;;5012666;28;20592;-75
2023/10/06 05:52:39;;;;;;;6.28;2.60;;;13.20;99.90;;;;;;5012846;28;20288;-76
2023/10/06 05:55:09;;;;;;;5.57;2.40;;;13.20;99.90;;;;;;5012848;28;20182;-75
2023/10/06 05:57:39;;;;;;;11.80;2.95;;;13.20;99.90;;;;;;5030095;28;20197;-75
2023/10/06 06:00:08;;;;;;;4.85;2.95;;;13.20;99.90;;;;;;5012769;28;20648;-75
2023/10/06 06:02:37;;;;;;;5.45;2.67;;;13.20;99.90;;;;;;4996415;28;20192;-75
2023/10/06 06:05:04;;;;;;;5.73;2.30;;;13.20;99.90;;;;;;5029078;28;20182;-75
2023/10/06 06:07:33;;;;;;;7.85;3.10;;;13.20;99.90;;;;;;5012545;28;20620;-75
2023/10/06 06:09:59;;;;;;;5.00;2.50;;;13.20;99.90;;;;;;5030461;28;20174;-75
2023/10/06 06:12:27;;;;;;;5.03;2.53;;;13.30;99.90;;;;;;5030283;28;20535;-75
2023/10/06 06:14:54;;;;;;;6.00;3.60;;;13.30;99.90;;;;;;5012849;28;20186;-75
2023/10/06 06:17:20;;;;;;;5.20;2.67;;;13.40;99.90;;;;;;5029946;28;20194;-75
2023/10/06 06:19:46;;;;;;;5.05;2.60;;;13.40;99.90;;;;;;5030947;28;20612;-75
2023/10/06 06:22:12;;;;;;;6.90;3.20;;;13.40;99.90;;;;;;5012582;28;20209;-75
2023/10/06 06:24:38;;;;;;;4.33;2.20;;;13.50;99.90;;;;;;5030397;28;20587;-75
2023/10/06 06:27:04;;;;;;;6.80;2.83;;;13.60;99.90;;;;;;5012409;28;20620;-75
2023/10/06 06:29:29;;;;;;;7.70;3.00;;;13.60;99.90;;;;;;5024168;28;20177;-75
2023/10/06 06:31:55;;;;;;;6.00;2.50;;;13.70;99.90;;;;;;4999599;28;20625;-75
2023/10/06 06:34:21;;;;;;;6.33;2.60;;;13.70;99.90;;;;;;5015868;28;20546;-75
2023/10/06 06:36:47;;;;;;;6.40;2.80;;;13.70;99.90;;;;;;5032154;28;20706;-75
2023/10/06 06:39:12;;;;;;;4.97;2.37;;;13.70;99.90;;;;;;5013373;28;20170;-75
2023/10/06 06:41:38;;;;;;;8.30;3.20;;;13.70;99.90;;;;;;5015905;28;20576;-75
2023/10/06 06:44:04;;;;;;;9.63;4.00;;;13.80;99.90;;;;;;5016002;28;20638;-75
2023/10/06 06:46:30;;;;;;;8.27;3.10;;;13.80;99.90;;;;;;5012042;28;20209;-75
2023/10/06 06:48:56;;;;;;;7.37;3.20;;;13.80;99.90;;;;;;5011062;28;20583;-75
2023/10/06 06:51:30;;;;;;;5.37;2.90;;;13.80;99.90;;;;;;5033136;28;20231;-75
2023/10/06 06:53:56;;;;;;;6.73;3.20;;;13.90;99.90;;;;;;5015337;28;20239;-75
2023/10/06 06:56:24;;;;;;;6.30;3.20;;;13.90;99.90;;;;;;5015447;28;21269;-75
2023/10/06 06:58:51;;;;;;;8.73;3.95;;;13.90;99.90;;;;;;5015388;28;20576;-75
2023/10/06 07:01:18;;;;;;;4.80;3.53;;;14.00;99.90;;;;;;4998927;28;20166;-76
2023/10/06 07:03:44;;;;;;;5.60;2.93;;;14.10;99.90;;;;;;5015214;28;20595;-76
2023/10/06 07:06:16;;;;;;;6.33;2.40;;;14.20;99.90;;;;;;5032770;28;20600;-76
2023/10/06 07:08:45;;;;;;;2.97;2.37;;;14.30;99.90;;;;;;5015494;28;20611;-76
2023/10/06 07:11:12;;;;;;;6.10;3.00;;;14.50;99.90;;;;;;5032890;28;21152;-76
2023/10/06 07:13:39;;;;;;;4.13;2.90;;;14.60;99.90;;;;;;5015188;28;20646;-76
2023/10/06 07:16:05;;;;;;;5.03;2.30;;;14.80;99.90;;;;;;5031707;28;20608;-76
2023/10/06 07:18:32;;;;;;;4.30;2.97;;;15.00;99.90;;;;;;5032828;28;20646;-76
2023/10/06 07:20:58;;;;;;;4.87;3.00;;;15.30;99.90;;;;;;5032780;28;20572;-76
2023/10/06 07:23:23;;;;;;;6.60;2.80;;;15.50;99.90;;;;;;5030198;28;20600;-76
2023/10/06 07:25:49;;;;;;;8.10;2.63;;;15.70;99.90;;;;;;5013335;28;20643;-76
2023/10/06 07:28:15;;;;;;;5.10;2.90;;;16.00;99.90;;;;;;4999042;28;20182;-76
2023/10/06 07:30:41;;;;;;;5.77;2.77;;;16.30;99.90;;;;;;5032514;28;20228;-76
2023/10/06 07:33:06;;;;;;;6.10;3.27;;;16.60;99.90;;;;;;4999040;28;20198;-75
2023/10/06 07:35:47;;;;;;;8.53;3.07;;;16.80;99.90;;;;;;5032386;28;20679;-75
2023/10/06 07:38:13;;;;;;;6.90;3.13;;;17.00;99.90;;;;;;4998208;28;20216;-76
2023/10/06 07:40:42;;;;;;;5.50;2.87;;;17.20;99.90;;;;;;5014267;28;20591;-76
2023/10/06 07:43:09;;;;;;;5.67;2.37;;;17.30;99.90;;;;;;5031231;28;20646;-76
2023/10/06 07:45:36;;;;;;;3.40;2.00;;;17.50;99.90;;;;;;5020011;28;20612;-76
2023/10/06 07:48:05;;;;;;;6.67;2.73;;;17.70;99.90;;;;;;5014368;28;20591;-76
2023/10/06 07:50:33;;;;;;;5.23;2.90;;;18.00;99.90;;;;;;5027582;28;20585;-76
2023/10/06 07:53:00;;;;;;;5.73;2.20;;;18.10;99.90;;;;;;5026851;28;20643;-77
2023/10/06 07:55:26;;;;;;;5.77;2.43;;;18.30;99.90;;;;;;4996847;28;20607;-77
2023/10/06 07:57:53;;;;;;;5.70;2.20;;;18.60;99.90;;;;;;5026019;28;20643;-76
2023/10/06 08:00:30;;;;;;;5.27;2.43;;;18.90;99.90;;;;;;5031996;28;20600;-76
2023/10/06 08:02:57;;;;;;;5.30;2.70;;;19.20;99.90;;;;;;5014332;28;20721;-76
2023/10/06 08:05:23;;;;;;;5.37;2.10;;;19.50;99.90;;;;;;5031716;28;20591;-76
2023/10/06 08:07:49;;;;;;;4.40;2.60;;;19.90;99.90;;;;;;5031719;28;20587;-76
2023/10/06 08:10:16;;;;;;;3.20;2.10;;;20.10;99.90;;;;;;5015038;28;21295;-74
2023/10/06 08:12:44;;;;;;;6.07;2.00;;;20.40;99.90;;;;;;5014112;28;20632;-75
2023/10/06 08:15:11;;;;;;;5.40;1.90;;;20.70;99.90;;;;;;5030564;28;20599;-74
2023/10/06 08:17:37;;;;;;;4.40;2.50;;;21.00;99.90;;;;;;5023360;28;20604;-74
2023/10/06 08:20:05;;;;;;;6.83;2.43;;;21.20;99.90;;;;;;5014079;28;20638;-75
2023/10/06 08:22:33;;;;;;;5.40;2.30;;;21.50;99.90;;;;;;5030186;28;20174;-75
2023/10/06 08:25:05;;;;;;;3.53;1.80;;;21.80;99.90;;;;;;5031794;28;20580;-75
2023/10/06 08:27:34;;;;;;;9.97;2.03;;;22.10;99.90;;;;;;5031149;28;21181;-75
2023/10/06 08:30:00;;;;;;;4.70;1.93;;;22.20;99.90;;;;;;5013736;28;20654;-75
2023/10/06 08:32:26;;;;;;;5.00;1.60;;;22.40;99.90;;;;;;4997237;28;20659;-75
2023/10/06 08:34:53;;;;;;;4.90;1.90;;;22.80;99.90;;;;;;5031018;28;20978;-74
2023/10/06 08:37:19;;;;;;;8.73;2.37;;;23.20;99.90;;;;;;5030009;28;20735;-74
2023/10/06 08:39:46;;;;;;;3.77;1.63;;;23.70;99.90;;;;;;5030033;28;20595;-74
2023/10/06 08:42:17;;;;;;;4.10;1.60;;;24.30;99.90;;;;;;5031135;28;20605;-74
2023/10/06 08:44:44;;;;;;;4.50;1.60;;;24.80;99.90;;;;;;5023921;28;20616;-74
2023/10/06 08:47:13;;;;;;;6.93;1.80;;;25.50;99.90;;;;;;5030603;28;20611;-74
2023/10/06 08:49:40;;;;;;;2.80;1.30;;;26.10;99.90;;;;;;5009531;28;20629;-74
2023/10/06 08:52:10;;;;;;;3.60;1.53;;;27.00;99.90;;;;;;5027567;28;20632;-73
2023/10/06 08:54:37;;;;;;;6.20;1.60;;;27.60;99.90;;;;;;5010467;28;20603;-73
2023/10/06 08:57:03;;;;;;;6.67;1.90;;;28.00;99.90;;;;;;5023790;28;20667;-74
2023/10/06 08:59:32;;;;;;;6.13;2.87;;;28.40;99.90;;;;;;5029563;28;20647;-74
2023/10/06 09:02:01;;;;;;;4.43;1.77;;;29.00;99.90;;;;;;5013141;28;20945;-74
2023/10/06 09:04:35;;;;;;;3.33;1.30;;;29.60;99.90;;;;;;4995211;28;20661;-74
2023/10/06 09:07:16;;;;;;;5.30;1.70;;;30.20;99.90;;;;;;5025499;28;21218;-74
2023/10/06 09:09:43;;;;;;;3.20;1.20;;;30.70;99.90;;;;;;5021953;28;20598;-74
2023/10/06 09:12:26;;;;;;;3.90;1.27;;;31.00;99.90;;;;;;5029548;28;20655;-74
2023/10/06 09:14:55;;;;;;;4.13;1.20;;;31.00;99.10;;;;;;5012555;28;20591;-73
2023/10/06 09:17:31;;;;;;;5.03;1.20;;;31.10;98.20;;;;;;5024112;28;20673;-73
2023/10/06 09:19:59;;;;;;;4.63;1.20;;;31.30;97.20;;;;;;5023687;28;21363;-74
2023/10/06 09:22:29;;;;;;;2.87;1.10;;;31.70;96.80;;;;;;5030610;28;20591;-74
2023/10/06 09:24:59;;;;;;;4.97;1.20;;;32.10;96.40;;;;;;5029378;28;20584;-74
2023/10/06 09:27:26;;;;;;;2.53;1.20;;;32.60;95.00;;;;;;5028922;28;20620;-74
2023/10/06 09:30:10;;;;;;;3.80;1.23;;;33.10;94.40;;;;;;5013051;28;20577;-74
2023/10/06 09:32:37;;;;;;;2.23;1.20;;;33.50;91.60;;;;;;5012680;28;20719;-74
2023/10/06 09:35:22;;;;;;;3.47;1.30;;;34.00;92.40;;;;;;5030652;28;20603;-74
2023/10/06 09:37:51;;;;;;;4.00;1.20;;;34.40;83.50;;;;;;5030457;28;20738;-75
2023/10/06 09:40:20;;;;;;;2.67;0.93;;;34.60;89.70;;;;;;5030584;28;20575;-74
2023/10/06 09:42:47;;;;;;;6.07;1.20;;;34.80;82.70;;;;;;5030469;28;20994;-75
2023/10/06 09:45:17;;;;;;;8.93;2.23;;;34.70;81.00;;;;;;5025910;28;20588;-74
2023/10/06 09:47:49;;;;;;;5.37;1.20;;;34.90;78.90;;;;;;5008573;28;20584;-74
2023/10/06 09:50:19;;;;;;;3.63;1.17;;;35.10;76.80;;;;;;5006754;28;20623;-74
2023/10/06 09:52:49;;;;;;;4.13;1.23;;;35.30;76.10;;;;;;5029354;28;21337;-74
2023/10/06 09:55:22;;;;;;;1.90;0.93;;;35.50;74.90;;;;;;5030261;28;21195;-74
2023/10/06 09:57:50;;;;;;;3.20;1.10;;;35.70;72.90;;;;;;5030099;28;20572;-74
2023/10/06 10:00:19;;;;;;;2.27;1.00;;;35.90;71.40;;;;;;5009022;28;20655;-74
2023/10/06 10:02:47;;;;;;;3.40;1.23;;;36.00;68.70;;;;;;4992618;28;20597;-74
2023/10/06 10:05:20;;;;;;;4.20;1.20;;;36.20;67.80;;;;;;5033701;28;20671;-75
2023/10/06 10:07:50;;;;;;;2.67;1.00;;;36.20;65.90;;;;;;5033880;28;20668;-74
2023/10/06 10:10:22;;;;;;;2.83;1.43;;;36.30;65.00;;;;;;5034035;28;20653;-74
2023/10/06 10:13:07;;;;;;;1.90;1.03;;;36.20;63.70;;;;;;5016239;28;20639;-74
2023/10/06 10:16:09;;;;;;;2.67;0.80;;;36.10;62.50;;;;;;5033940;28;21032;-74
2023/10/06 10:18:39;;;;;;;2.33;1.20;;;35.90;60.90;;;;;;5016050;28;20576;-75
2023/10/06 10:21:11;;;;;;;4.03;1.10;;;35.70;60.30;;;;;;4999781;28;20639;-74
2023/10/06 10:23:40;;;;;;;3.20;1.00;;;35.30;58.80;;;;;;5033878;28;20580;-74
2023/10/06 10:26:16;;;;;;;2.70;1.00;;;35.00;58.60;;;;;;5013702;28;21409;-75
2023/10/06 10:28:43;;;;;;;3.13;1.40;;;34.60;57.90;;;;;;5028929;28;20991;-74
2023/10/06 10:31:17;;;;;;;3.10;1.23;;;34.20;58.00;;;;;;5016209;28;20951;-74
2023/10/06 10:33:45;;;;;;;3.40;1.40;;;33.90;57.80;;;;;;5032185;28;21223;-74
2023/10/06 10:36:17;;;;;;;3.20;2.00;;;33.60;57.70;;;;;;5015142;28;20612;-74
2023/10/06 10:38:44;;;;;;;3.63;1.23;;;33.30;57.90;;;;;;5014646;28;20584;-73
2023/10/06 10:41:10;;;;;;;3.43;1.30;;;33.10;58.00;;;;;;5033179;28;20572;-73
2023/10/06 10:43:45;;;;;;;2.83;1.13;;;33.10;58.30;;;;;;4998399;28;20593;-74
2023/10/06 10:46:14;;;;;;;2.90;1.60;;;33.10;58.20;;;;;;5015606;28;21032;-75
2023/10/06 10:48:49;;;;;;;3.17;1.10;;;33.00;58.00;;;;;;5015679;28;21161;-75
2023/10/06 10:51:15;;;;;;;1.80;1.20;;;33.00;58.30;;;;;;5033392;28;20610;-74
2023/10/06 10:53:46;;;;;;;2.53;0.90;;;33.00;58.10;;;;;;4999124;28;20628;-74
2023/10/06 10:56:13;;;;;;;2.97;1.23;;;33.00;57.30;;;;;;5032957;28;20631;-74
2023/10/06 10:58:43;;;;;;;3.30;1.40;;;32.90;57.30;;;;;;5030028;28;20993;-74
2023/10/06 11:01:32;;;;;;;5.53;1.40;;;32.90;56.90;;;;;;5031995;28;21221;-74
2023/10/06 11:04:13;;;;;;;3.23;1.10;;;32.80;56.40;;;;;;5027418;28;20679;-75
2023/10/06 11:06:40;;;;;;;5.63;1.50;;;32.80;56.40;;;;;;5014981;28;20619;-75
2023/10/06 11:09:29;;;;;;;5.50;1.50;;;32.90;57.30;;;;;;5033144;28;20600;-75
2023/10/06 11:11:56;;;;;;;3.60;0.90;;;32.80;56.60;;;;;;5015373;28;20588;-75
2023/10/06 11:14:27;;;;;;;2.60;1.30;;;32.90;57.00;;;;;;5032955;28;20922;-75
2023/10/06 11:17:05;;;;;;;2.87;1.13;;;32.80;56.90;;;;;;5031941;28;20611;-74
2023/10/06 11:19:36;;;;;;;3.93;1.30;;;32.80;56.10;;;;;;5033301;28;20592;-75
2023/10/06 11:22:32;;;;;;;2.90;1.43;;;32.70;55.40;;;;;;5032899;28;20589;-75
2023/10/06 11:25:03;;;;;;;4.00;1.50;;;32.60;56.00;;;;;;5003210;28;20616;-75
2023/10/06 11:27:30;;;;;;;4.00;1.20;;;32.50;54.90;;;;;;5013186;28;20673;-74
2023/10/06 11:29:59;;;;;;;5.53;1.47;;;32.30;54.70;;;;;;5029941;28;20587;-73
2023/10/06 11:32:28;;;;;;;3.67;1.80;;;32.10;54.30;;;;;;5015231;28;20639;-74
2023/10/06 11:34:54;;;;;;;3.87;1.70;;;31.90;53.90;;;;;;5015397;28;20622;-73
2023/10/06 11:37:24;;;;;;;6.00;1.77;;;31.70;54.10;;;;;;5017994;28;20621;-75
2023/10/06 11:39:52;;;;;;;4.87;1.40;;;31.50;54.00;;;;;;5003352;28;21184;-75
2023/10/06 11:42:25;;;;;;;3.50;1.73;;;31.30;54.30;;;;;;5020055;28;20586;-75
2023/10/06 11:44:56;;;;;;;4.13;1.20;;;31.30;54.30;;;;;;5024107;28;20597;-74
2023/10/06 11:47:28;;;;;;;3.97;1.43;;;31.20;54.50;;;;;;5014591;28;20697;-75
2023/10/06 11:49:57;;;;;;;3.50;1.30;;;31.20;54.40;;;;;;5013684;28;20569;-75
2023/10/06 11:52:24;;;;;;;4.20;1.63;;;31.20;54.20;;;;;;4987698;28;20628;-75
2023/10/06 11:54:51;;;;;;;3.30;1.20;;;31.10;54.20;;;;;;5024706;28;20574;-76
2023/10/06 11:57:47;;;;;;;3.10;1.20;;;31.10;54.10;;;;;;5032178;28;20639;-75
2023/10/06 12:00:17;;;;;;;2.90;1.20;;;30.90;53.60;;;;;;5032579;28;20586;-75
2023/10/06 12:02:53;;;;;;;2.87;1.30;;;30.80;53.60;;;;;;5015148;28;20660;-75
2023/10/06 12:05:22;;;;;;;3.50;1.00;;;30.70;52.80;;;;;;5014921;28;20593;-75
2023/10/06 12:07:51;;;;;;;4.40;1.60;;;30.50;53.00;;;;;;5017197;28;20632;-75
2023/10/06 12:10:18;;;;;;;4.47;2.20;;;30.30;53.40;;;;;;5034950;28;20629;-75
2023/10/06 12:12:50;;;;;;;5.60;1.10;;;30.20;53.30;;;;;;5015397;28;20622;-76
2023/10/06 12:15:16;;;;;;;4.07;1.10;;;30.10;53.20;;;;;;5033142;28;20596;-75
2023/10/06 12:17:43;;;;;;;4.07;1.20;;;29.90;53.40;;;;;;5023102;28;20597;-76
2023/10/06 12:20:16;;;;;;;3.37;1.30;;;29.80;53.40;;;;;;5014809;28;20581;-75
2023/10/06 12:22:46;;;;;;;2.53;1.20;;;29.70;53.40;;;;;;5024782;28;20679;-76
2023/10/06 12:25:14;;;;;;;2.90;1.10;;;29.50;53.40;;;;;;5025110;28;20592;-75
2023/10/06 12:27:47;;;;;;;8.70;1.23;;;29.40;53.60;;;;;;5043489;28;20590;-76
2023/10/06 12:30:17;;;;;;;2.90;1.00;;;29.20;53.40;;;;;;5025528;28;20581;-76
2023/10/06 12:32:45;;;;;;;2.97;1.17;;;29.00;53.20;;;;;;5026941;28;20632;-75
2023/10/06 12:35:12;;;;;;;3.37;1.87;;;29.00;53.70;;;;;;5037326;28;20671;-76
2023/10/06 12:37:41;;;;;;;3.90;2.03;;;28.80;53.40;;;;;;5040086;28;20617;-76
2023/10/06 12:40:13;;;;;;;5.03;1.80;;;28.60;53.30;;;;;;5022103;28;20584;-75
2023/10/06 12:42:42;;;;;;;4.30;2.10;;;28.40;53.10;;;;;;5024608;28;20595;-76
2023/10/06 12:45:17;;;;;;;5.10;2.03;;;28.10;52.90;;;;;;5039237;28;20619;-74
2023/10/06 12:47:46;;;;;;;3.50;1.57;;;27.80;52.80;;;;;;5029884;28;20599;-75
2023/10/06 12:50:16;;;;;;;3.00;1.43;;;27.40;52.90;;;;;;4994029;28;20582;-75
2023/10/06 12:52:52;;;;;;;6.20;2.17;;;27.10;53.00;;;;;;5029697;28;20717;-75
2023/10/06 12:55:22;;;;;;;4.57;2.13;;;26.80;53.20;;;;;;5013159;28;20599;-74
2023/10/06 12:57:52;;;;;;;3.17;1.50;;;26.50;53.70;;;;;;5029636;28;21207;-75
2023/10/06 13:00:19;;;;;;;3.97;1.67;;;26.40;54.10;;;;;;5013325;28;20608;-75
2023/10/06 13:02:48;;;;;;;2.67;1.20;;;26.20;54.20;;;;;;5029922;28;20584;-75
2023/10/06 13:05:18;;;;;;;4.40;1.53;;;26.10;54.60;;;;;;5012048;28;20683;-74
2023/10/06 13:07:46;;;;;;;4.60;1.53;;;26.00;54.90;;;;;;5012928;28;20669;-74
2023/10/06 13:10:13;;;;;;;10.27;5.20;;;25.90;55.10;;;;;;5027664;28;20756;-74
2023/10/06 13:12:39;;;;;;;8.63;4.80;;;25.80;55.10;;;;;;5028500;28;20755;-75